sensor_id;sensor_type;location;lat;lon;timestamp;pressure;altitude;pressure_sealevel;temperature;humidity
73063;BME280;61230;46.328;19.972;2022-12-07T00:01:32;100746.25;;;0.66;100.00
73063;BME280;61230;46.328;19.972;2022-12-07T00:04:02;100749.97;;;0.61;100.00
73063;BME280;61230;46.328;19.972;2022-12-07T00:06:35;100750.94;;;0.58;100.00
73063;BME280;61230;46.328;19.972;2022-12-07T00:09:04;100758.81;;;0.56;100.00
73063;BME280;61230;46.328;19.972;2022-12-07T00:11:36;100759.13;;;0.49;100.00
73063;BME280;61230;46.328;19.972;2022-12-07T00:14:07;100758.44;;;0.45;100.00
73063;BME280;61230;46.328;19.972;2022-12-07T00:16:35;100762.47;;;0.32;100.00
73063;BME280;61230;46.328;19.972;2022-12-07T00:19:03;100758.81;;;-0.23;100.00
73063;BME280;61230;46.328;19.972;2022-12-07T00:21:33;100751.66;;;-0.36;100.00
73063;BME280;61230;46.328;19.972;2022-12-07T00:24:03;100754.75;;;-0.48;100.00
73063;BME280;61230;46.328;19.972;2022-12-07T00:26:35;100738.84;;;-0.39;100.00
73063;BME280;61230;46.328;19.972;2022-12-07T00:29:07;100751.28;;;-0.07;100.00
73063;BME280;61230;46.328;19.972;2022-12-07T00:31:37;100754.56;;;-0.04;100.00
73063;BME280;61230;46.328;19.972;2022-12-07T00:34:13;100745.72;;;-0.18;100.00
73063;BME280;61230;46.328;19.972;2022-12-07T00:36:41;100739.09;;;-0.25;100.00
73063;BME280;61230;46.328;19.972;2022-12-07T00:39:09;100736.22;;;-0.38;100.00
73063;BME280;61230;46.328;19.972;2022-12-07T00:41:36;100737.28;;;-0.64;100.00
73063;BME280;61230;46.328;19.972;2022-12-07T00:44:04;100734.22;;;-0.31;100.00
73063;BME280;61230;46.328;19.972;2022-12-07T00:46:32;100739.41;;;-0.31;100.00
73063;BME280;61230;46.328;19.972;2022-12-07T00:49:00;100739.22;;;-0.08;100.00
73063;BME280;61230;46.328;19.972;2022-12-07T00:51:27;100732.19;;;-0.05;100.00
73063;BME280;61230;46.328;19.972;2022-12-07T00:53:55;100737.88;;;0.04;100.00
73063;BME280;61230;46.328;19.972;2022-12-07T00:56:25;100736.97;;;0.05;100.00
73063;BME280;61230;46.328;19.972;2022-12-07T00:58:58;100725.53;;;0.10;100.00
73063;BME280;61230;46.328;19.972;2022-12-07T01:01:28;100724.19;;;0.20;100.00
73063;BME280;61230;46.328;19.972;2022-12-07T01:03:56;100720.25;;;0.12;100.00
73063;BME280;61230;46.328;19.972;2022-12-07T01:06:24;100715.44;;;0.04;100.00
73063;BME280;61230;46.328;19.972;2022-12-07T01:08:53;100722.19;;;-0.12;100.00
73063;BME280;61230;46.328;19.972;2022-12-07T01:11:24;100720.88;;;-0.02;100.00
73063;BME280;61230;46.328;19.972;2022-12-07T01:13:53;100711.25;;;-0.19;100.00
73063;BME280;61230;46.328;19.972;2022-12-07T01:16:23;100710.47;;;-0.01;100.00
73063;BME280;61230;46.328;19.972;2022-12-07T01:18:53;100716.69;;;-0.05;100.00
73063;BME280;61230;46.328;19.972;2022-12-07T01:21:29;100706.72;;;-0.14;100.00
73063;BME280;61230;46.328;19.972;2022-12-07T01:23:57;100715.41;;;-0.15;100.00
73063;BME280;61230;46.328;19.972;2022-12-07T01:26:26;100702.91;;;-0.05;100.00
73063;BME280;61230;46.328;19.972;2022-12-07T01:28:54;100709.62;;;-0.01;100.00
73063;BME280;61230;46.328;19.972;2022-12-07T01:31:23;100703.41;;;0.03;100.00
73063;BME280;61230;46.328;19.972;2022-12-07T01:33:54;100711.13;;;-0.36;100.00
73063;BME280;61230;46.328;19.972;2022-12-07T01:36:31;100717.00;;;-0.73;100.00
73063;BME280;61230;46.328;19.972;2022-12-07T01:39:02;100716.94;;;-0.31;100.00
73063;BME280;61230;46.328;19.972;2022-12-07T01:41:33;100718.63;;;-0.30;100.00
73063;BME280;61230;46.328;19.972;2022-12-07T01:44:17;100722.44;;;-0.38;100.00
73063;BME280;61230;46.328;19.972;2022-12-07T01:46:50;100718.31;;;-0.42;100.00
73063;BME280;61230;46.328;19.972;2022-12-07T01:49:32;100725.03;;;-0.38;100.00
73063;BME280;61230;46.328;19.972;2022-12-07T01:52:20;100717.16;;;-0.35;100.00
73063;BME280;61230;46.328;19.972;2022-12-07T01:54:53;100709.28;;;-0.32;100.00
73063;BME280;61230;46.328;19.972;2022-12-07T01:57:22;100696.97;;;-0.47;100.00
73063;BME280;61230;46.328;19.972;2022-12-07T01:59:51;100717.28;;;-0.38;100.00
73063;BME280;61230;46.328;19.972;2022-12-07T02:02:24;100707.97;;;-0.42;100.00
73063;BME280;61230;46.328;19.972;2022-12-07T02:04:55;100707.06;;;-0.41;100.00
73063;BME280;61230;46.328;19.972;2022-12-07T02:07:25;100707.78;;;-0.38;100.00
73063;BME280;61230;46.328;19.972;2022-12-07T02:09:54;100707.53;;;-0.32;100.00
73063;BME280;61230;46.328;19.972;2022-12-07T02:12:23;100686.25;;;-0.38;100.00
73063;BME280;61230;46.328;19.972;2022-12-07T02:14:51;100709.16;;;-0.29;100.00
73063;BME280;61230;46.328;19.972;2022-12-07T02:17:46;100711.00;;;-0.33;100.00
73063;BME280;61230;46.328;19.972;2022-12-07T02:31:31;100697.44;;;-0.58;100.00
73063;BME280;61230;46.328;19.972;2022-12-07T02:34:24;100693.44;;;-0.45;100.00
73063;BME280;61230;46.328;19.972;2022-12-07T02:37:01;100690.53;;;-0.37;100.00
73063;BME280;61230;46.328;19.972;2022-12-07T02:39:43;100683.09;;;-0.45;100.00
73063;BME280;61230;46.328;19.972;2022-12-07T02:42:17;100680.47;;;-0.43;100.00
73063;BME280;61230;46.328;19.972;2022-12-07T02:44:48;100681.94;;;-0.38;100.00
73063;BME280;61230;46.328;19.972;2022-12-07T02:47:16;100684.56;;;-0.39;100.00
73063;BME280;61230;46.328;19.972;2022-12-07T02:49:47;100685.25;;;-0.34;100.00
73063;BME280;61230;46.328;19.972;2022-12-07T02:52:16;100675.78;;;-0.35;100.00
73063;BME280;61230;46.328;19.972;2022-12-07T02:54:44;100672.38;;;-0.36;100.00
73063;BME280;61230;46.328;19.972;2022-12-07T02:57:46;100678.44;;;-0.37;100.00
73063;BME280;61230;46.328;19.972;2022-12-07T03:00:19;100676.63;;;-0.35;100.00
73063;BME280;61230;46.328;19.972;2022-12-07T03:02:57;100655.22;;;-0.57;100.00
73063;BME280;61230;46.328;19.972;2022-12-07T03:09:21;100673.00;;;-0.31;100.00
73063;BME280;61230;46.328;19.972;2022-12-07T03:11:30;100670.87;;;-0.41;100.00
73063;BME280;61230;46.328;19.972;2022-12-07T03:14:22;100667.06;;;-0.33;100.00
73063;BME280;61230;46.328;19.972;2022-12-07T03:17:02;100666.31;;;-0.35;100.00
73063;BME280;61230;46.328;19.972;2022-12-07T03:19:34;100664.34;;;-0.30;100.00
73063;BME280;61230;46.328;19.972;2022-12-07T03:22:05;100661.06;;;-0.33;100.00
73063;BME280;61230;46.328;19.972;2022-12-07T03:24:54;100657.91;;;-0.40;100.00
73063;BME280;61230;46.328;19.972;2022-12-07T03:27:25;100650.06;;;-0.38;100.00
73063;BME280;61230;46.328;19.972;2022-12-07T03:30:00;100648.50;;;-0.42;100.00
73063;BME280;61230;46.328;19.972;2022-12-07T03:32:42;100642.97;;;-0.33;100.00
73063;BME280;61230;46.328;19.972;2022-12-07T03:35:17;100648.38;;;-0.39;100.00
73063;BME280;61230;46.328;19.972;2022-12-07T03:37:51;100644.69;;;-0.34;100.00
73063;BME280;61230;46.328;19.972;2022-12-07T03:40:40;100640.75;;;-0.22;100.00
73063;BME280;61230;46.328;19.972;2022-12-07T03:43:11;100639.22;;;-0.26;100.00
73063;BME280;61230;46.328;19.972;2022-12-07T03:45:43;100637.66;;;-0.30;100.00
73063;BME280;61230;46.328;19.972;2022-12-07T03:51:13;100639.63;;;-0.55;100.00
73063;BME280;61230;46.328;19.972;2022-12-07T03:53:57;100650.41;;;-0.46;100.00
73063;BME280;61230;46.328;19.972;2022-12-07T03:56:27;100641.34;;;-0.36;100.00
73063;BME280;61230;46.328;19.972;2022-12-07T03:59:03;100633.41;;;-0.31;100.00
73063;BME280;61230;46.328;19.972;2022-12-07T04:01:31;100633.09;;;-0.64;100.00
73063;BME280;61230;46.328;19.972;2022-12-07T04:03:59;100637.03;;;-0.55;100.00
73063;BME280;61230;46.328;19.972;2022-12-07T04:06:26;100629.41;;;-0.59;100.00
73063;BME280;61230;46.328;19.972;2022-12-07T04:08:54;100628.19;;;-0.50;100.00
73063;BME280;61230;46.328;19.972;2022-12-07T04:11:22;100635.03;;;-0.69;100.00
73063;BME280;61230;46.328;19.972;2022-12-07T04:13:49;100630.84;;;-0.92;100.00
73063;BME280;61230;46.328;19.972;2022-12-07T04:16:36;100641.94;;;-0.70;100.00
73063;BME280;61230;46.328;19.972;2022-12-07T04:19:10;100635.38;;;-0.77;100.00
73063;BME280;61230;46.328;19.972;2022-12-07T04:21:39;100634.97;;;-0.68;100.00
73063;BME280;61230;46.328;19.972;2022-12-07T04:24:07;100632.12;;;-0.62;100.00
73063;BME280;61230;46.328;19.972;2022-12-07T04:26:34;100640.22;;;-0.49;100.00
73063;BME280;61230;46.328;19.972;2022-12-07T04:29:02;100647.97;;;-0.49;100.00
73063;BME280;61230;46.328;19.972;2022-12-07T04:31:34;100654.75;;;-0.46;100.00
73063;BME280;61230;46.328;19.972;2022-12-07T04:34:03;100650.34;;;-0.44;100.00
73063;BME280;61230;46.328;19.972;2022-12-07T04:36:31;100643.03;;;-0.35;100.00
73063;BME280;61230;46.328;19.972;2022-12-07T04:38:59;100637.00;;;-0.54;100.00
73063;BME280;61230;46.328;19.972;2022-12-07T04:41:28;100629.25;;;-0.54;100.00
73063;BME280;61230;46.328;19.972;2022-12-07T04:46:24;100635.94;;;-0.50;100.00
73063;BME280;61230;46.328;19.972;2022-12-07T04:48:53;100629.87;;;-0.49;100.00
73063;BME280;61230;46.328;19.972;2022-12-07T04:51:23;100635.34;;;-0.57;100.00
73063;BME280;61230;46.328;19.972;2022-12-07T04:53:52;100632.34;;;-0.46;100.00
73063;BME280;61230;46.328;19.972;2022-12-07T04:56:20;100634.13;;;-0.48;100.00
73063;BME280;61230;46.328;19.972;2022-12-07T04:58:49;100636.66;;;-0.46;100.00
73063;BME280;61230;46.328;19.972;2022-12-07T05:01:17;100640.25;;;-0.50;100.00
73063;BME280;61230;46.328;19.972;2022-12-07T05:03:45;100632.22;;;-0.63;100.00
73063;BME280;61230;46.328;19.972;2022-12-07T05:06:14;100639.38;;;-0.49;100.00
73063;BME280;61230;46.328;19.972;2022-12-07T05:08:41;100637.41;;;-0.65;100.00
73063;BME280;61230;46.328;19.972;2022-12-07T05:11:11;100635.69;;;-0.64;100.00
73063;BME280;61230;46.328;19.972;2022-12-07T05:14:02;100632.25;;;-0.65;100.00
73063;BME280;61230;46.328;19.972;2022-12-07T05:16:31;100645.25;;;-0.66;100.00
73063;BME280;61230;46.328;19.972;2022-12-07T05:18:58;100649.38;;;-0.62;99.62
73063;BME280;61230;46.328;19.972;2022-12-07T05:21:26;100647.25;;;-0.73;99.63
73063;BME280;61230;46.328;19.972;2022-12-07T05:23:54;100644.78;;;-0.76;99.88
73063;BME280;61230;46.328;19.972;2022-12-07T05:26:21;100646.09;;;-0.66;100.00
73063;BME280;61230;46.328;19.972;2022-12-07T05:28:53;100641.22;;;-0.73;99.17
73063;BME280;61230;46.328;19.972;2022-12-07T05:31:22;100642.19;;;-0.96;98.82
73063;BME280;61230;46.328;19.972;2022-12-07T05:33:50;100651.00;;;-0.80;100.00
73063;BME280;61230;46.328;19.972;2022-12-07T05:36:18;100645.12;;;-0.83;100.00
73063;BME280;61230;46.328;19.972;2022-12-07T05:38:45;100645.25;;;-0.86;100.00
73063;BME280;61230;46.328;19.972;2022-12-07T05:41:15;100646.69;;;-1.01;100.00
73063;BME280;61230;46.328;19.972;2022-12-07T05:44:02;100651.75;;;-0.98;100.00
73063;BME280;61230;46.328;19.972;2022-12-07T05:46:30;100648.16;;;-0.94;100.00
73063;BME280;61230;46.328;19.972;2022-12-07T05:48:57;100654.72;;;-0.87;100.00
73063;BME280;61230;46.328;19.972;2022-12-07T05:51:25;100650.56;;;-0.91;100.00
73063;BME280;61230;46.328;19.972;2022-12-07T05:53:53;100656.44;;;-1.07;100.00
73063;BME280;61230;46.328;19.972;2022-12-07T05:56:21;100649.09;;;-0.96;100.00
73063;BME280;61230;46.328;19.972;2022-12-07T05:58:49;100653.47;;;-0.98;100.00
73063;BME280;61230;46.328;19.972;2022-12-07T06:01:35;100663.03;;;-1.00;100.00
73063;BME280;61230;46.328;19.972;2022-12-07T06:04:03;100654.22;;;-0.95;100.00
73063;BME280;61230;46.328;19.972;2022-12-07T06:06:31;100648.16;;;-0.94;100.00
73063;BME280;61230;46.328;19.972;2022-12-07T06:08:58;100648.78;;;-0.89;100.00
73063;BME280;61230;46.328;19.972;2022-12-07T06:11:26;100638.38;;;-0.87;100.00
73063;BME280;61230;46.328;19.972;2022-12-07T06:14:12;100639.75;;;-0.79;100.00
73063;BME280;61230;46.328;19.972;2022-12-07T06:16:40;100644.00;;;-0.98;100.00
73063;BME280;61230;46.328;19.972;2022-12-07T06:19:08;100642.69;;;-0.88;100.00
73063;BME280;61230;46.328;19.972;2022-12-07T06:21:36;100651.25;;;-0.86;99.06
73063;BME280;61230;46.328;19.972;2022-12-07T06:24:04;100644.88;;;-0.77;99.96
73063;BME280;61230;46.328;19.972;2022-12-07T06:26:31;100645.84;;;-0.80;99.52
73063;BME280;61230;46.328;19.972;2022-12-07T06:28:59;100641.31;;;-0.75;99.69
73063;BME280;61230;46.328;19.972;2022-12-07T06:31:27;100639.50;;;-0.73;98.80
73063;BME280;61230;46.328;19.972;2022-12-07T06:34:04;100641.06;;;-0.69;98.63
73063;BME280;61230;46.328;19.972;2022-12-07T06:36:32;100639.16;;;-0.65;99.33
73063;BME280;61230;46.328;19.972;2022-12-07T06:39:00;100645.25;;;-0.66;99.45
73063;BME280;61230;46.328;19.972;2022-12-07T06:41:28;100627.31;;;-0.69;99.13
73063;BME280;61230;46.328;19.972;2022-12-07T06:43:56;100636.53;;;-0.64;98.92
73063;BME280;61230;46.328;19.972;2022-12-07T06:46:25;100637.28;;;-0.62;99.14
73063;BME280;61230;46.328;19.972;2022-12-07T06:48:56;100638.91;;;-0.59;99.10
73063;BME280;61230;46.328;19.972;2022-12-07T06:51:25;100640.37;;;-0.53;98.34
73063;BME280;61230;46.328;19.972;2022-12-07T06:53:55;100636.31;;;-0.59;99.26
73063;BME280;61230;46.328;19.972;2022-12-07T06:56:26;100634.41;;;-0.54;99.06
73063;BME280;61230;46.328;19.972;2022-12-07T06:58:58;100631.62;;;-0.49;98.68
73063;BME280;61230;46.328;19.972;2022-12-07T07:01:26;100635.69;;;-0.44;99.15
73063;BME280;61230;46.328;19.972;2022-12-07T07:03:53;100640.84;;;-0.44;98.79
73063;BME280;61230;46.328;19.972;2022-12-07T07:06:21;100649.44;;;-0.43;99.07
73063;BME280;61230;46.328;19.972;2022-12-07T07:08:49;100652.22;;;-0.48;98.86
73063;BME280;61230;46.328;19.972;2022-12-07T07:11:17;100644.91;;;-0.38;99.82
73063;BME280;61230;46.328;19.972;2022-12-07T07:13:45;100652.53;;;-0.55;100.00
73063;BME280;61230;46.328;19.972;2022-12-07T07:16:13;100653.44;;;-0.57;100.00
73063;BME280;61230;46.328;19.972;2022-12-07T07:18:41;100642.31;;;-0.38;100.00
73063;BME280;61230;46.328;19.972;2022-12-07T07:21:08;100644.56;;;-0.31;100.00
73063;BME280;61230;46.328;19.972;2022-12-07T07:23:36;100648.72;;;-0.27;100.00
73063;BME280;61230;46.328;19.972;2022-12-07T07:26:04;100657.44;;;-0.29;100.00
73063;BME280;61230;46.328;19.972;2022-12-07T07:28:31;100658.72;;;-0.39;100.00
73063;BME280;61230;46.328;19.972;2022-12-07T07:30:59;100659.28;;;-0.51;100.00
73063;BME280;61230;46.328;19.972;2022-12-07T07:33:27;100665.94;;;-0.46;100.00
73063;BME280;61230;46.328;19.972;2022-12-07T07:35:54;100670.63;;;-0.76;100.00
73063;BME280;61230;46.328;19.972;2022-12-07T07:38:23;100666.88;;;-0.89;100.00
73063;BME280;61230;46.328;19.972;2022-12-07T07:40:50;100671.00;;;-0.85;100.00
73063;BME280;61230;46.328;19.972;2022-12-07T07:43:18;100666.47;;;-0.60;100.00
73063;BME280;61230;46.328;19.972;2022-12-07T07:45:45;100673.53;;;-0.63;100.00
73063;BME280;61230;46.328;19.972;2022-12-07T07:48:13;100676.28;;;-0.88;100.00
73063;BME280;61230;46.328;19.972;2022-12-07T07:50:40;100670.75;;;-0.79;100.00
73063;BME280;61230;46.328;19.972;2022-12-07T07:53:12;100673.56;;;-0.43;100.00
73063;BME280;61230;46.328;19.972;2022-12-07T07:55:41;100677.03;;;-0.05;100.00
73063;BME280;61230;46.328;19.972;2022-12-07T07:58:09;100680.44;;;-0.23;100.00
73063;BME280;61230;46.328;19.972;2022-12-07T08:00:36;100681.97;;;-0.19;100.00
73063;BME280;61230;46.328;19.972;2022-12-07T08:03:04;100674.66;;;-0.10;100.00
73063;BME280;61230;46.328;19.972;2022-12-07T08:05:32;100683.41;;;0.07;100.00
73063;BME280;61230;46.328;19.972;2022-12-07T08:07:59;100680.50;;;0.14;100.00
73063;BME280;61230;46.328;19.972;2022-12-07T08:10:27;100681.00;;;0.22;100.00
73063;BME280;61230;46.328;19.972;2022-12-07T08:12:55;100690.78;;;0.34;100.00
73063;BME280;61230;46.328;19.972;2022-12-07T08:15:43;100685.69;;;0.33;100.00
73063;BME280;61230;46.328;19.972;2022-12-07T08:18:13;100690.03;;;0.51;100.00
73063;BME280;61230;46.328;19.972;2022-12-07T08:20:42;100688.69;;;0.61;100.00
73063;BME280;61230;46.328;19.972;2022-12-07T08:23:10;100693.44;;;0.70;100.00
73063;BME280;61230;46.328;19.972;2022-12-07T08:25:38;100695.09;;;0.71;100.00
73063;BME280;61230;46.328;19.972;2022-12-07T08:28:07;100687.59;;;0.84;100.00
73063;BME280;61230;46.328;19.972;2022-12-07T08:30:34;100694.34;;;1.05;100.00
73063;BME280;61230;46.328;19.972;2022-12-07T08:33:02;100682.31;;;1.21;100.00
73063;BME280;61230;46.328;19.972;2022-12-07T08:35:32;100683.25;;;1.37;100.00
73063;BME280;61230;46.328;19.972;2022-12-07T08:38:00;100694.84;;;1.47;100.00
73063;BME280;61230;46.328;19.972;2022-12-07T08:40:30;100695.06;;;1.60;100.00
73063;BME280;61230;46.328;19.972;2022-12-07T08:42:57;100706.97;;;1.64;100.00
73063;BME280;61230;46.328;19.972;2022-12-07T08:45:25;100705.19;;;1.82;100.00
73063;BME280;61230;46.328;19.972;2022-12-07T08:48:02;100701.31;;;2.06;100.00
73063;BME280;61230;46.328;19.972;2022-12-07T08:50:33;100707.06;;;1.95;100.00
73063;BME280;61230;46.328;19.972;2022-12-07T08:53:02;100709.94;;;2.06;100.00
73063;BME280;61230;46.328;19.972;2022-12-07T08:55:33;100703.22;;;2.02;100.00
73063;BME280;61230;46.328;19.972;2022-12-07T08:58:02;100702.47;;;2.00;100.00
73063;BME280;61230;46.328;19.972;2022-12-07T09:00:30;100709.41;;;2.00;100.00
73063;BME280;61230;46.328;19.972;2022-12-07T09:02:57;100710.44;;;2.13;100.00
73063;BME280;61230;46.328;19.972;2022-12-07T09:05:25;100717.09;;;2.18;100.00
73063;BME280;61230;46.328;19.972;2022-12-07T09:07:57;100710.12;;;2.19;100.00
73063;BME280;61230;46.328;19.972;2022-12-07T09:10:28;100709.16;;;2.37;100.00
73063;BME280;61230;46.328;19.972;2022-12-07T09:12:57;100707.00;;;2.29;100.00
73063;BME280;61230;46.328;19.972;2022-12-07T09:15:28;100705.13;;;2.47;100.00
73063;BME280;61230;46.328;19.972;2022-12-07T09:17:56;100702.63;;;2.61;100.00
73063;BME280;61230;46.328;19.972;2022-12-07T09:20:23;100704.66;;;2.87;100.00
73063;BME280;61230;46.328;19.972;2022-12-07T09:22:55;100702.25;;;2.69;100.00
73063;BME280;61230;46.328;19.972;2022-12-07T09:25:24;100699.91;;;3.10;100.00
73063;BME280;61230;46.328;19.972;2022-12-07T09:27:56;100691.44;;;3.22;100.00
73063;BME280;61230;46.328;19.972;2022-12-07T09:30:25;100699.41;;;3.19;100.00
73063;BME280;61230;46.328;19.972;2022-12-07T09:32:55;100694.72;;;3.10;100.00
73063;BME280;61230;46.328;19.972;2022-12-07T09:35:24;100690.81;;;3.32;100.00
73063;BME280;61230;46.328;19.972;2022-12-07T09:37:52;100685.72;;;3.31;100.00
73063;BME280;61230;46.328;19.972;2022-12-07T09:40:20;100689.88;;;3.49;100.00
73063;BME280;61230;46.328;19.972;2022-12-07T09:42:51;100687.19;;;3.65;100.00
73063;BME280;61230;46.328;19.972;2022-12-07T09:45:38;100683.31;;;3.72;100.00
73063;BME280;61230;46.328;19.972;2022-12-07T09:48:19;100684.59;;;3.79;100.00
73063;BME280;61230;46.328;19.972;2022-12-07T09:50:49;100676.69;;;3.80;100.00
73063;BME280;61230;46.328;19.972;2022-12-07T09:53:37;100676.22;;;3.60;100.00
73063;BME280;61230;46.328;19.972;2022-12-07T09:56:06;100675.94;;;3.64;100.00
73063;BME280;61230;46.328;19.972;2022-12-07T09:58:33;100670.19;;;3.73;100.00
73063;BME280;61230;46.328;19.972;2022-12-07T10:01:13;100674.56;;;3.73;99.67
73063;BME280;61230;46.328;19.972;2022-12-07T10:04:00;100676.31;;;3.72;99.24
73063;BME280;61230;46.328;19.972;2022-12-07T10:06:29;100670.38;;;3.70;99.38
73063;BME280;61230;46.328;19.972;2022-12-07T10:08:56;100667.69;;;3.72;100.00
73063;BME280;61230;46.328;19.972;2022-12-07T10:11:24;100671.78;;;3.76;100.00
73063;BME280;61230;46.328;19.972;2022-12-07T10:13:52;100666.56;;;3.76;100.00
73063;BME280;61230;46.328;19.972;2022-12-07T10:16:28;100674.00;;;3.82;100.00
73063;BME280;61230;46.328;19.972;2022-12-07T10:19:26;100669.56;;;4.12;98.93
73063;BME280;61230;46.328;19.972;2022-12-07T10:22:10;100657.91;;;4.32;96.02
73063;BME280;61230;46.328;19.972;2022-12-07T10:24:42;100652.84;;;4.43;94.51
73063;BME280;61230;46.328;19.972;2022-12-07T10:27:30;100651.91;;;4.58;94.62
73063;BME280;61230;46.328;19.972;2022-12-07T10:29:59;100650.84;;;4.75;93.89
73063;BME280;61230;46.328;19.972;2022-12-07T10:35:27;100640.91;;;4.67;93.63
73063;BME280;61230;46.328;19.972;2022-12-07T10:37:58;100638.38;;;4.92;91.24
73063;BME280;61230;46.328;19.972;2022-12-07T10:40:29;100641.47;;;5.11;90.08
73063;BME280;61230;46.328;19.972;2022-12-07T10:46:24;100629.06;;;5.15;88.00
73063;BME280;61230;46.328;19.972;2022-12-07T10:52:01;100634.22;;;5.54;88.49
73063;BME280;61230;46.328;19.972;2022-12-07T11:00:04;100634.88;;;5.83;83.34
73063;BME280;61230;46.328;19.972;2022-12-07T11:08:34;100635.50;;;5.99;81.82
73063;BME280;61230;46.328;19.972;2022-12-07T11:11:20;100629.84;;;6.05;81.90
73063;BME280;61230;46.328;19.972;2022-12-07T11:14:26;100624.03;;;5.89;80.93
73063;BME280;61230;46.328;19.972;2022-12-07T11:17:04;100623.69;;;6.06;79.98
73063;BME280;61230;46.328;19.972;2022-12-07T11:22:41;100620.03;;;6.09;80.13
73063;BME280;61230;46.328;19.972;2022-12-07T11:27:42;100609.22;;;6.26;77.40
73063;BME280;61230;46.328;19.972;2022-12-07T11:33:00;100611.06;;;6.36;77.61
73063;BME280;61230;46.328;19.972;2022-12-07T11:35:45;100609.19;;;6.38;76.19
73063;BME280;61230;46.328;19.972;2022-12-07T11:38:20;100609.28;;;6.50;77.35
73063;BME280;61230;46.328;19.972;2022-12-07T11:41:01;100601.50;;;6.61;77.78
73063;BME280;61230;46.328;19.972;2022-12-07T11:43:53;100604.53;;;6.78;78.79
73063;BME280;61230;46.328;19.972;2022-12-07T11:46:27;100603.16;;;6.85;76.36
73063;BME280;61230;46.328;19.972;2022-12-07T11:49:02;100602.78;;;6.90;76.09
73063;BME280;61230;46.328;19.972;2022-12-07T11:51:36;100606.03;;;6.93;74.32
73063;BME280;61230;46.328;19.972;2022-12-07T11:54:14;100601.72;;;6.92;73.82
73063;BME280;61230;46.328;19.972;2022-12-07T11:56:48;100598.41;;;6.90;74.42
73063;BME280;61230;46.328;19.972;2022-12-07T11:59:36;100591.84;;;6.85;74.48
73063;BME280;61230;46.328;19.972;2022-12-07T12:05:02;100598.41;;;6.90;73.35
73063;BME280;61230;46.328;19.972;2022-12-07T12:07:33;100603.19;;;6.97;73.63
73063;BME280;61230;46.328;19.972;2022-12-07T12:10:35;100592.50;;;7.00;72.92
73063;BME280;61230;46.328;19.972;2022-12-07T12:19:38;100581.00;;;7.13;74.70
73063;BME280;61230;46.328;19.972;2022-12-07T12:22:20;100573.91;;;7.26;73.81
73063;BME280;61230;46.328;19.972;2022-12-07T12:24:53;100575.00;;;7.35;73.56
73063;BME280;61230;46.328;19.972;2022-12-07T12:27:35;100569.41;;;7.50;73.56
73063;BME280;61230;46.328;19.972;2022-12-07T12:30:30;100565.41;;;7.58;72.86
73063;BME280;61230;46.328;19.972;2022-12-07T12:33:28;100562.03;;;7.56;71.81
73063;BME280;61230;46.328;19.972;2022-12-07T12:47:04;100566.09;;;7.82;72.07
73063;BME280;61230;46.328;19.972;2022-12-07T12:50:32;100550.16;;;7.85;70.50
73063;BME280;61230;46.328;19.972;2022-12-07T12:53:12;100556.22;;;7.74;71.08
73063;BME280;61230;46.328;19.972;2022-12-07T12:58:36;100558.28;;;7.14;72.66
73063;BME280;61230;46.328;19.972;2022-12-07T13:04:17;100561.06;;;7.23;72.12
73063;BME280;61230;46.328;19.972;2022-12-07T13:06:46;100557.62;;;6.88;73.90
73063;BME280;61230;46.328;19.972;2022-12-07T13:09:23;100564.28;;;6.81;73.49
73063;BME280;61230;46.328;19.972;2022-12-07T13:12:04;100557.81;;;7.09;73.78
73063;BME280;61230;46.328;19.972;2022-12-07T13:14:53;100558.91;;;7.17;74.01
73063;BME280;61230;46.328;19.972;2022-12-07T13:20:07;100569.19;;;7.87;90.95
73063;BME280;61230;46.328;19.972;2022-12-07T13:22:47;100571.91;;;8.30;93.46
73063;BME280;61230;46.328;19.972;2022-12-07T13:25:26;100574.16;;;8.23;87.93
73063;BME280;61230;46.328;19.972;2022-12-07T13:28:15;100566.66;;;8.73;94.54
73063;BME280;61230;46.328;19.972;2022-12-07T13:33:17;100574.19;;;7.57;73.41
73063;BME280;61230;46.328;19.972;2022-12-07T13:35:46;100572.41;;;7.79;73.61
73063;BME280;61230;46.328;19.972;2022-12-07T13:38:25;100570.97;;;7.75;73.34
73063;BME280;61230;46.328;19.972;2022-12-07T13:41:04;100567.41;;;7.65;71.63
73063;BME280;61230;46.328;19.972;2022-12-07T13:43:43;100563.94;;;7.53;72.20
73063;BME280;61230;46.328;19.972;2022-12-07T13:46:12;100568.81;;;7.47;72.56
73063;BME280;61230;46.328;19.972;2022-12-07T13:48:46;100569.16;;;7.31;73.34
73063;BME280;61230;46.328;19.972;2022-12-07T13:51:34;100565.81;;;7.29;74.22
73063;BME280;61230;46.328;19.972;2022-12-07T13:54:11;100557.84;;;7.20;75.06
73063;BME280;61230;46.328;19.972;2022-12-07T13:56:47;100575.66;;;7.04;76.55
73063;BME280;61230;46.328;19.972;2022-12-07T13:59:22;100568.72;;;7.03;77.06
73063;BME280;61230;46.328;19.972;2022-12-07T14:01:53;100567.50;;;6.95;76.66
73063;BME280;61230;46.328;19.972;2022-12-07T14:04:29;100569.31;;;6.95;76.36
73063;BME280;61230;46.328;19.972;2022-12-07T14:06:59;100575.00;;;6.89;76.00
73063;BME280;61230;46.328;19.972;2022-12-07T14:09:29;100579.47;;;6.87;76.00
73063;BME280;61230;46.328;19.972;2022-12-07T14:11:57;100579.13;;;6.80;76.38
73063;BME280;61230;46.328;19.972;2022-12-07T14:14:28;100584.88;;;6.73;76.75
73063;BME280;61230;46.328;19.972;2022-12-07T14:17:18;100583.78;;;6.64;77.68
73063;BME280;61230;46.328;19.972;2022-12-07T14:19:58;100575.56;;;6.58;77.66
73063;BME280;61230;46.328;19.972;2022-12-07T14:22:38;100576.72;;;6.54;78.00
73063;BME280;61230;46.328;19.972;2022-12-07T14:25:17;100580.75;;;6.47;78.55
73063;BME280;61230;46.328;19.972;2022-12-07T14:27:57;100568.44;;;6.36;78.98